Time;durP1;ratioP1;P1;durP2;ratioP2;P2;SDS_P1;SDS_P2;PMS_P1;PMS_P2;Temp;Humidity;BMP_temperature;BMP_pressure;BME280_temperature;BME280_humidity;BME280_pressure;Samples;Min_cycle;Max_cycle;Signal;HPM_P1;HPM_P2
2021/01/20 00:07:23;;;;;;;226.83;80.80;;;;;;;-3.14;100.00;99534.76;10784936;82;21112;-84
2021/01/20 00:22:28;;;;;;;208.25;70.97;;;;;;;-2.99;100.00;99531.99;10753755;81;21107;-85
2021/01/20 00:37:32;;;;;;;209.35;72.35;;;;;;;-2.86;100.00;99505.70;10803341;81;21500;-86
2021/01/20 00:52:37;;;;;;;204.38;74.82;;;;;;;-2.76;100.00;99491.16;10864035;82;21038;-86
2021/01/20 01:07:55;;;;;;;155.03;51.73;;;;;;;-2.73;100.00;99473.88;10789085;82;21095;-87
2021/01/20 01:23:06;;;;;;;215.35;76.90;;;;;;;-2.66;100.00;99454.34;10764293;81;21028;-87
2021/01/20 01:38:11;;;;;;;184.60;67.95;;;;;;;-2.58;100.00;99451.78;10710852;83;21473;-87
2021/01/20 01:53:16;;;;;;;189.03;68.90;;;;;;;-2.50;100.00;99446.29;10726357;82;21048;-87
2021/01/20 02:08:21;;;;;;;181.02;66.62;;;;;;;-2.45;100.00;99435.81;10746148;82;21064;-86
2021/01/20 02:23:27;;;;;;;185.30;66.70;;;;;;;-2.37;100.00;99446.55;10739301;83;21152;-86
2021/01/20 02:38:32;;;;;;;165.68;60.92;;;;;;;-2.26;100.00;99446.02;10738934;83;21005;-86
2021/01/20 02:53:38;;;;;;;185.78;69.20;;;;;;;-2.17;100.00;99432.25;10737864;83;21107;-86
2021/01/20 03:08:42;;;;;;;178.87;59.40;;;;;;;-1.97;100.00;99419.34;10758327;81;21641;-86
2021/01/20 03:23:47;;;;;;;165.60;60.67;;;;;;;-1.57;100.00;99421.16;10764880;81;21597;-86
2021/01/20 03:38:51;;;;;;;156.45;56.68;;;;;;;-1.28;100.00;99419.67;10764519;81;21064;-86
2021/01/20 03:53:55;;;;;;;146.05;59.42;;;;;;;-1.03;100.00;99404.17;10764778;82;21008;-86
2021/01/20 04:08:59;;;;;;;119.85;43.17;;;;;;;-0.84;100.00;99404.84;10745327;82;21052;-86
2021/01/20 04:24:06;;;;;;;147.30;57.85;;;;;;;-0.65;100.00;99404.30;10738701;83;21143;-85
2021/01/20 04:39:09;;;;;;;;;;;;;;;-0.52;100.00;99406.08;10700920;83;21131;-86
2021/01/20 04:54:16;;;;;;;155.82;55.40;;;;;;;-0.40;100.00;99401.17;10738902;83;20505;-87
2021/01/20 05:09:21;;;;;;;98.40;37.83;;;;;;;-0.32;100.00;99380.11;10491315;83;21036;-86
2021/01/20 05:24:25;;;;;;;130.80;47.30;;;;;;;-0.17;100.00;99371.03;10394140;84;21119;-87
2021/01/20 05:39:30;;;;;;;70.55;28.35;;;;;;;-0.13;100.00;99360.53;10379374;85;21068;-86
2021/01/20 05:54:37;;;;;;;41.53;19.32;;;;;;;0.00;100.00;99360.20;10468564;84;21463;-86
2021/01/20 06:09:45;;;;;;;70.03;28.40;;;;;;;0.11;100.00;99374.57;10618739;83;21462;-86
2021/01/20 06:24:52;;;;;;;44.83;20.52;;;;;;;0.22;100.00;99365.38;10628051;83;21462;-87
2021/01/20 06:39:56;;;;;;;40.15;18.10;;;;;;;0.32;100.00;99375.04;10284685;85;21213;-87
2021/01/20 06:55:01;;;;;;;39.27;19.23;;;;;;;0.36;100.00;99384.73;10640236;83;21501;-87
2021/01/20 07:10:08;;;;;;;41.08;19.30;;;;;;;0.44;100.00;99390.25;10752580;82;21090;-88
2021/01/20 07:25:15;;;;;;;60.67;31.25;;;;;;;0.47;100.00;99388.77;10815449;81;21067;-88
2021/01/20 07:40:22;;;;;;;60.03;27.23;;;;;;;0.50;100.00;99392.91;10815342;81;21074;-88
2021/01/20 07:55:27;;;;;;;35.60;18.07;;;;;;;0.61;100.00;99381.95;10836622;81;21056;-90
2021/01/20 08:10:31;;;;;;;37.42;19.92;;;;;;;0.61;100.00;99381.95;10819732;81;21224;-91
2021/01/20 08:25:35;;;;;;;47.13;22.48;;;;;;;0.78;100.00;99397.23;10819758;82;21536;-91
2021/01/20 08:40:40;;;;;;;44.48;22.42;;;;;;;1.00;100.00;99382.98;10830383;81;21106;-88
2021/01/20 08:55:52;;;;;;;58.52;28.05;;;;;;;1.00;100.00;99382.98;10845268;82;21075;-89
2021/01/20 09:11:01;;;;;;;101.65;47.00;;;;;;;1.18;100.00;99400.85;10841516;81;22033;-88
2021/01/20 09:26:08;;;;;;;67.22;33.33;;;;;;;1.20;100.00;99392.08;10830839;81;20975;-87
2021/01/20 09:41:12;;;;;;;75.12;30.70;;;;;;;1.31;100.00;99403.02;10830193;81;20992;-89
2021/01/20 09:56:17;;;;;;;69.77;35.98;;;;;;;1.41;100.00;99408.41;10806468;81;21458;-88
2021/01/20 10:11:22;;;;;;;55.83;28.38;;;;;;;1.50;100.00;99402.66;10761911;82;21587;-87
2021/01/20 10:26:26;;;;;;;60.12;26.60;;;;;;;1.59;100.00;99397.36;10235820;85;21134;-84
2021/01/20 10:41:30;;;;;;;72.42;33.40;;;;;;;1.68;100.00;99388.16;10539240;83;21066;-88
2021/01/20 10:56:35;;;;;;;65.30;30.62;;;;;;;1.79;100.00;99394.29;10745227;82;21179;-86
2021/01/20 11:11:42;;;;;;;77.20;35.33;;;;;;;1.90;100.00;99366.44;10719292;82;21052;-89
2021/01/20 11:26:46;;;;;;;70.40;36.50;;;;;;;2.01;100.00;99361.84;10698247;83;21217;-89
2021/01/20 11:41:52;;;;;;;57.85;30.45;;;;;;;2.16;100.00;99340.11;10696071;83;21195;-89
